MDT,Max TemperatureF,Mean TemperatureF,Min TemperatureF,Max Dew PointF,MeanDew PointF,Min DewpointF,Max Humidity, Mean Humidity, Min Humidity, Max Sea Level PressureIn, Mean Sea Level PressureIn, Min Sea Level PressureIn, Max VisibilityMiles, Mean VisibilityMiles, Min VisibilityMiles, Max Wind SpeedMPH, Mean Wind SpeedMPH, Max Gust SpeedMPH,PrecipitationIn, CloudCover, Events, WindDirDegrees
2012-9-1,78,65,51,58,53,47,93,64,35,30.14,29.98,29.87,10,10,5,24,6,32,0.26,4,Rain-Thunderstorm,206
2012-9-2,78,62,46,50,43,34,93,57,20,30.18,30.07,29.99,10,10,10,16,7,23,0.01,0,,192
2012-9-3,81,62,42,43,34,22,83,48,12,30.13,30.04,29.96,10,10,10,16,7,22,0.00,0,,191
2012-9-4,84,63,41,40,35,26,82,48,13,30.07,30.01,29.96,10,10,10,22,6,29,0.00,0,,190
2012-9-5,82,62,41,41,35,25,79,46,13,30.11,30.00,29.86,10,10,6,15,8,21,0.00,0,,156
2012-9-6,66,54,42,45,40,32,82,57,32,30.11,30.00,29.88,10,10,8,29,7,37,0.03,2,Rain,103
2012-9-7,77,60,43,43,38,31,89,54,19,30.28,30.22,30.12,10,10,10,9,2,13,0.00,0,,47
2012-9-8,81,61,40,43,36,27,85,50,14,30.31,30.22,30.12,10,10,10,13,4,20,0.00,0,,14
2012-9-9,83,62,41,42,38,29,82,48,14,30.12,30.00,29.82,10,10,10,18,6,24,0.00,0,,153
2012-9-10,80,65,50,46,33,11,74,41,7,29.86,29.82,29.77,10,10,10,38,16,54,0.00,0,,197
2012-9-11,72,58,44,34,29,25,58,39,19,30.08,29.97,29.84,10,10,10,20,9,28,0.00,0,,206
2012-9-12,70,52,34,31,25,16,75,44,12,30.36,30.24,30.09,10,10,10,10,4,13,0.00,0,,82
2012-9-13,77,55,33,42,28,18,75,43,11,30.50,30.40,30.33,10,10,8,8,3,14,0.00,0,,11
2012-9-14,83,60,36,35,26,13,82,45,8,30.38,30.26,30.15,10,10,10,13,4,17,0.00,0,,93
2012-9-15,84,62,40,34,28,19,67,39,10,30.20,30.10,30.01,10,10,10,18,8,25,0.00,0,,173
2012-9-16,78,60,41,39,35,28,76,46,16,30.12,30.07,29.99,10,10,8,21,6,30,T,1,Rain,43
2012-9-17,74,57,40,40,35,30,85,53,20,30.19,30.13,30.08,10,9,5,13,5,16,0.00,1,,122
2012-9-18,76,57,38,37,29,18,85,48,11,30.23,30.15,30.09,10,8,5,15,5,21,0.00,0,,177
2012-9-19,75,57,39,36,31,27,70,44,17,30.27,30.17,30.11,10,8,5,12,5,15,0.00,4,,93
2012-9-20,76,57,38,37,32,26,85,51,16,30.25,30.18,30.10,5,4,2,10,4,14,0.00,7,,176
2012-9-21,78,59,39,42,33,26,76,46,16,30.26,30.15,30.07,7,5,4,9,3,13,0.00,8,,2
2012-9-22,81,60,39,41,32,23,76,44,12,30.17,30.08,30.00,9,7,4,12,3,14,0.00,2,,42
2012-9-23,77,61,44,45,38,32,70,47,23,30.10,30.04,30.00,10,10,8,13,4,16,0.00,2,,97
2012-9-24,65,58,51,52,47,40,89,69,48,30.08,30.03,29.98,10,10,10,12,6,16,0.02,5,Rain,201
2012-9-25,68,59,49,50,48,45,100,75,47,30.09,30.01,29.94,10,10,9,12,2,16,0.01,6,,38
2012-9-26,72,57,42,47,43,40,100,67,33,30.09,30.04,29.98,10,10,10,8,2,12,0.00,0,,28
2012-9-27,75,59,42,45,41,35,92,59,25,30.16,30.09,30.04,10,10,10,12,4,18,0.00,0,,129
2012-9-28,76,58,39,43,38,35,92,58,23,30.13,30.05,29.96,10,10,10,14,4,20,T,0,,140
2012-9-29,74,61,47,43,39,34,80,52,23,30.15,30.08,29.99,10,10,8,13,3,18,0.00,2,Rain,181
2012-9-30,75,58,40,41,37,34,83,53,23,30.24,30.18,30.12,10,10,10,13,6,17,0.00,0,,179